Aviation Digital Data Service (ADDS)

Output produced by METARs form (0513 UTC 19 February 2019)
found at http://www.aviationweather.gov/metar/data/
 
Forecast for: ZJSY (SANYA/FENGHUANG , CN)
Text: TAF ZJSY 190300Z 1906/2006 15004MPS 9999 FEW020 SCT040 TX30/1906Z TN23/1921Z
Forecast period: 0600 UTC 19 February 2019 to 0600 UTC 20 February 2019
Forecast type: FROM: standard forecast or significant change
Winds: from the SSE (150 degrees) at 9 MPH (8 knots; 4.1 m/s)
Visibility: 6 or more miles 10+ km)
Ceiling: at least 12,000 feet AGL
Clouds: few clouds at 2000 feet AGL
scattered clouds at 4000 feet AGL
Weather: no significant weather forecast for this period